MiSS Cape Ann — WDD7942 — position and weather

sailwx.info

Track history (hours):
 
Tides and Currents Weather Stations Pressure Air Temp Water Temp Dewpoint Dewpoint Depression Visibility Wind Speed Wind Dir Waves Ship Positions

MiSS Cape Ann

Owner: Miss Gloucester II Corp, Gloucester, MA. More information available from US FCC via Universal Licensing System and Coast Guard Vessel Documentation Center.

Last reported at 2018-Jun-24 22:00 UTC. Time now 2018-Jun-24 22:02 UTC.
Position N 42°37' W 070°39'.

Type: Ship. MMSI: 367193190.

Date/timePositionNaut miles runAvg speedWind from/ knotsBaromVisibWave heightAir tempDewpointWater temp
2018-Jun-24 22:00N 42°37' W 070°39'1 1.3
2018-Jun-24 21:30N 42°36' W 070°40'510.4
2018-Jun-24 21:00N 42°38' W 070°33'612.3
2018-Jun-24 20:30N 42°42' W 070°27'3 5.1
2018-Jun-24 20:00N 42°39' W 070°28'1 1.5
2018-Jun-24 19:30N 42°40' W 070°29'612.1
2018-Jun-24 19:01N 42°34' W 070°32'1 2.1
2018-Jun-24 18:30N 42°34' W 070°34'5 9.5
2018-Jun-24 18:00N 42°37' W 070°40'0 0.2
2018-Jun-24 17:30N 42°37' W 070°39'0 0.0
2018-Jun-24 17:00N 42°37' W 070°39'0 0.0
2018-Jun-24 16:30N 42°37' W 070°39'0 0.0
2018-Jun-24 15:59N 42°37' W 070°39'0 0.0
2018-Jun-24 15:30N 42°37' W 070°39'0 0.0
2018-Jun-24 15:00N 42°37' W 070°39'0 0.0
2018-Jun-24 14:30N 42°37' W 070°39'0 0.0
2018-Jun-24 14:00N 42°37' W 070°39'0 0.0
2018-Jun-24 13:30N 42°37' W 070°39'0 0.0
2018-Jun-24 13:00N 42°37' W 070°39'0 0.0
2018-Jun-23 21:22N 42°37' W 070°39'0 1.0
2018-Jun-23 21:00N 42°36' W 070°40'4 8.7
2018-Jun-23 20:30N 42°38' W 070°34'611.0
2018-Jun-23 20:00N 42°42' W 070°30'1 2.9
2018-Jun-23 19:30N 42°41' W 070°29'2 4.1
2018-Jun-23 19:00N 42°40' W 070°32'2 4.7
2018-Jun-23 18:30N 42°38' W 070°34'5 9.3
2018-Jun-23 18:00N 42°37' W 070°40'0 0.5
2018-Jun-23 17:30N 42°37' W 070°39'0 0.0
2018-Jun-23 17:00N 42°37' W 070°39'1 1.6
2018-Jun-23 16:31N 42°36' W 070°40'815.2
2018-Jun-23 16:00N 42°30' W 070°34'816.2
2018-Jun-23 15:30N 42°25' W 070°25'3 6.8
2018-Jun-23 15:00N 42°23' W 070°22'510.7
2018-Jun-23 14:31N 42°26' W 070°27'1 1.1
2018-Jun-23 14:00N 42°27' W 070°28'715.1
2018-Jun-23 13:30N 42°32' W 070°34'611.7
2018-Jun-23 13:00N 42°37' W 070°39'0 0.0
2018-Jun-23 12:31N 42°37' W 070°39'0 0.0
2018-Jun-22 18:43N 42°37' W 070°39'0 0.0
2018-Jun-22 18:31N 42°37' W 070°39'3 6.9
2018-Jun-22 18:00N 42°33' W 070°38'917.2
2018-Jun-22 17:30N 42°28' W 070°30'815.7
2018-Jun-22 17:00N 42°22' W 070°22'1 2.0
2018-Jun-22 16:30N 42°23' W 070°22'2 3.0
2018-Jun-22 16:00N 42°24' W 070°23'4 8.5
2018-Jun-22 15:30N 42°27' W 070°27'816.7
2018-Jun-22 15:00N 42°33' W 070°36'510.1
2018-Jun-22 14:30N 42°37' W 070°39'0 0.0
2018-Jun-22 14:00N 42°37' W 070°39'0 0.0
2018-Jun-22 13:30N 42°37' W 070°39'0 0.0
2018-Jun-22 13:00N 42°37' W 070°39'0 0.0
2018-Jun-22 00:59N 42°37' W 070°39'1 2.7
2018-Jun-22 00:30N 42°37' W 070°41'1 2.9
2018-Jun-22 00:00N 42°39' W 070°41'2 3.9
2018-Jun-21 23:30N 42°37' W 070°41'1 0.2
2018-Jun-21 18:35N 42°37' W 070°39'0 0.1
2018-Jun-21 18:30N 42°37' W 070°39'5 9.8
2018-Jun-21 18:01N 42°32' W 070°37'917.9
2018-Jun-21 17:30N 42°27' W 070°27'5 9.9
2018-Jun-21 17:00N 42°23' W 070°22'2 3.1
2018-Jun-21 16:30N 42°25' W 070°22'3 5.7
2018-Jun-21 16:00N 42°28' W 070°23'918.0
2018-Jun-21 15:30N 42°36' W 070°29'611.7
2018-Jun-21 15:00N 42°32' W 070°35'611.6
2018-Jun-21 14:30N 42°37' W 070°39'0 0.0
2018-Jun-20 17:57N 42°37' W 070°39'511.4
2018-Jun-20 17:30N 42°32' W 070°37'714.0
2018-Jun-20 17:01N 42°27' W 070°30'1 1.4
2018-Jun-20 16:31N 42°27' W 070°29'1 1.4
2018-Jun-20 16:01N 42°27' W 070°28'1 2.0
2018-Jun-20 15:31N 42°28' W 070°29'816.7
2018-Jun-20 15:01N 42°34' W 070°37'4 7.1
2018-Jun-20 14:31N 42°37' W 070°39'0 0.0
2018-Jun-20 14:00N 42°37' W 070°39'0 0.0
2018-Jun-20 13:30N 42°37' W 070°39'0 0.0
2018-Jun-20 13:00N 42°37' W 070°39'0 0.0
2018-Jun-20 12:30N 42°37' W 070°39'0 0.0
2018-Jun-18 17:53N 42°37' W 070°39'1 2.7
2018-Jun-18 17:30N 42°36' W 070°40'816.8
2018-Jun-18 17:00N 42°30' W 070°32'816.5
2018-Jun-18 16:30N 42°24' W 070°25'2 4.0
2018-Jun-18 16:00N 42°25' W 070°27'3 5.7
2018-Jun-18 15:30N 42°28' W 070°29'612.4
2018-Jun-18 15:00N 42°31' W 070°35'612.1
2018-Jun-18 14:30N 42°37' W 070°39'0 0.1
2018-Jun-18 14:00N 42°37' W 070°39'0 0.0
2018-Jun-17 21:32N 42°37' W 070°39'0 0.0
2018-Jun-17 21:30N 42°37' W 070°39'2 4.2
2018-Jun-17 21:00N 42°35' W 070°40'816.4
2018-Jun-17 20:30N 42°30' W 070°31'611.8
2018-Jun-17 20:00N 42°26' W 070°25'2 3.1
2018-Jun-17 19:31N 42°25' W 070°25'3 5.8
2018-Jun-17 19:00N 42°27' W 070°27'816.4
2018-Jun-17 18:30N 42°32' W 070°36'510.6
2018-Jun-17 18:01N 42°37' W 070°39'0 0.0
2018-Jun-17 17:30N 42°37' W 070°39'0 0.0
2018-Jun-17 17:00N 42°37' W 070°39'0 0.0
2018-Jun-17 16:30N 42°37' W 070°39'2 3.2
2018-Jun-17 16:00N 42°35' W 070°40'715.0
2018-Jun-17 15:31N 42°30' W 070°33'815.7
2018-Jun-17 15:00N 42°25' W 070°25'1 1.8
2018-Jun-17 14:30N 42°25' W 070°26'1 1.2
2018-Jun-17 14:00N 42°26' W 070°26'816.3
2018-Jun-17 13:30N 42°31' W 070°34'713.3
2018-Jun-17 13:00N 42°37' W 070°39'0 0.1
2018-Jun-17 12:30N 42°37' W 070°39'0 0.0
2018-Jun-16 21:39N 42°37' W 070°39'0 3.3
2018-Jun-16 21:30N 42°36' W 070°40'510.7
2018-Jun-16 21:00N 42°38' W 070°33'5 9.9
2018-Jun-16 20:30N 42°40' W 070°27'1 1.4
2018-Jun-16 20:00N 42°39' W 070°26'3 6.7
2018-Jun-16 19:30N 42°41' W 070°22'4 7.7
2018-Jun-16 19:00N 42°38' W 070°25'815.7
2018-Jun-16 18:30N 42°35' W 070°35'3 6.7
2018-Jun-16 17:59N 42°37' W 070°39'0 0.0
2018-Jun-16 17:30N 42°37' W 070°39'0 0.0
2018-Jun-16 17:00N 42°37' W 070°39'0 0.0
2018-Jun-16 16:30N 42°37' W 070°39'3 5.7
2018-Jun-16 16:00N 42°36' W 070°36'917.0
2018-Jun-16 15:30N 42°41' W 070°27'3 5.2
2018-Jun-16 15:00N 42°42' W 070°24'2 4.1
2018-Jun-16 14:30N 42°41' W 070°25'2 4.4
2018-Jun-16 14:01N 42°40' W 070°28'510.1
2018-Jun-16 13:30N 42°37' W 070°33'4 8.6
2018-Jun-16 13:00N 42°37' W 070°39'0 0.0
2018-Jun-16 12:30N 42°37' W 070°39'0 0.0
2018-Jun-16 12:00N 42°37' W 070°39'0 0.0
2018-Jun-15 19:17N 42°37' W 070°39'0 0.0
2018-Jun-15 18:17N 42°37' W 070°39'2 8.2
2018-Jun-15 18:00N 42°34' W 070°39'816.1
2018-Jun-15 17:30N 42°37' W 070°29'4 8.1
2018-Jun-15 16:59N 42°40' W 070°24'0 0.9
2018-Jun-15 16:30N 42°40' W 070°24'2 3.8
2018-Jun-15 16:00N 42°41' W 070°24'510.1
2018-Jun-15 15:31N 42°42' W 070°31'714.8
2018-Jun-15 15:00N 42°36' W 070°35'3 6.3
2018-Jun-15 14:30N 42°37' W 070°39'0 0.0
2018-Jun-15 14:00N 42°37' W 070°39'0 0.0
2018-Jun-15 13:30N 42°37' W 070°39'  
Track history (hours):
 
Tides and Currents Weather Stations Pressure Air Temp Water Temp Dewpoint Dewpoint Depression Visibility Wind Speed Wind Dir Waves Ship Positions

MiSS Cape Ann

Owner: Miss Gloucester II Corp, Gloucester, MA. More information available from US FCC via Universal Licensing System and Coast Guard Vessel Documentation Center.

Last reported at 2018-Jun-24 22:00 UTC. Time now 2018-Jun-24 22:02 UTC.
Position N 42°37' W 070°39'.

Type: Ship. MMSI: 367193190.

Date/timePositionNaut miles runAvg speedWind from/ knotsBaromVisibWave heightAir tempDewpointWater temp
2018-Jun-24 22:00N 42°37' W 070°39'1 1.3
2018-Jun-24 21:30N 42°36' W 070°40'510.4
2018-Jun-24 21:00N 42°38' W 070°33'612.3
2018-Jun-24 20:30N 42°42' W 070°27'3 5.1
2018-Jun-24 20:00N 42°39' W 070°28'1 1.5
2018-Jun-24 19:30N 42°40' W 070°29'612.1
2018-Jun-24 19:01N 42°34' W 070°32'1 2.1
2018-Jun-24 18:30N 42°34' W 070°34'5 9.5
2018-Jun-24 18:00N 42°37' W 070°40'0 0.2
2018-Jun-24 17:30N 42°37' W 070°39'0 0.0
2018-Jun-24 17:00N 42°37' W 070°39'0 0.0
2018-Jun-24 16:30N 42°37' W 070°39'0 0.0
2018-Jun-24 15:59N 42°37' W 070°39'0 0.0
2018-Jun-24 15:30N 42°37' W 070°39'0 0.0
2018-Jun-24 15:00N 42°37' W 070°39'0 0.0
2018-Jun-24 14:30N 42°37' W 070°39'0 0.0
2018-Jun-24 14:00N 42°37' W 070°39'0 0.0
2018-Jun-24 13:30N 42°37' W 070°39'0 0.0
2018-Jun-24 13:00N 42°37' W 070°39'0 0.0
2018-Jun-23 21:22N 42°37' W 070°39'0 1.0
2018-Jun-23 21:00N 42°36' W 070°40'4 8.7
2018-Jun-23 20:30N 42°38' W 070°34'611.0
2018-Jun-23 20:00N 42°42' W 070°30'1 2.9
2018-Jun-23 19:30N 42°41' W 070°29'2 4.1
2018-Jun-23 19:00N 42°40' W 070°32'2 4.7
2018-Jun-23 18:30N 42°38' W 070°34'5 9.3
2018-Jun-23 18:00N 42°37' W 070°40'0 0.5
2018-Jun-23 17:30N 42°37' W 070°39'0 0.0
2018-Jun-23 17:00N 42°37' W 070°39'1 1.6
2018-Jun-23 16:31N 42°36' W 070°40'815.2
2018-Jun-23 16:00N 42°30' W 070°34'816.2
2018-Jun-23 15:30N 42°25' W 070°25'3 6.8
2018-Jun-23 15:00N 42°23' W 070°22'510.7
2018-Jun-23 14:31N 42°26' W 070°27'1 1.1
2018-Jun-23 14:00N 42°27' W 070°28'715.1
2018-Jun-23 13:30N 42°32' W 070°34'611.7
2018-Jun-23 13:00N 42°37' W 070°39'0 0.0
2018-Jun-23 12:31N 42°37' W 070°39'0 0.0
2018-Jun-22 18:43N 42°37' W 070°39'0 0.0
2018-Jun-22 18:31N 42°37' W 070°39'3 6.9
2018-Jun-22 18:00N 42°33' W 070°38'917.2
2018-Jun-22 17:30N 42°28' W 070°30'815.7
2018-Jun-22 17:00N 42°22' W 070°22'1 2.0
2018-Jun-22 16:30N 42°23' W 070°22'2 3.0
2018-Jun-22 16:00N 42°24' W 070°23'4 8.5
2018-Jun-22 15:30N 42°27' W 070°27'816.7
2018-Jun-22 15:00N 42°33' W 070°36'510.1
2018-Jun-22 14:30N 42°37' W 070°39'0 0.0
2018-Jun-22 14:00N 42°37' W 070°39'0 0.0
2018-Jun-22 13:30N 42°37' W 070°39'0 0.0
2018-Jun-22 13:00N 42°37' W 070°39'0 0.0
2018-Jun-22 00:59N 42°37' W 070°39'1 2.7
2018-Jun-22 00:30N 42°37' W 070°41'1 2.9
2018-Jun-22 00:00N 42°39' W 070°41'2 3.9
2018-Jun-21 23:30N 42°37' W 070°41'1 0.2
2018-Jun-21 18:35N 42°37' W 070°39'0 0.1
2018-Jun-21 18:30N 42°37' W 070°39'5 9.8
2018-Jun-21 18:01N 42°32' W 070°37'917.9
2018-Jun-21 17:30N 42°27' W 070°27'5 9.9
2018-Jun-21 17:00N 42°23' W 070°22'2 3.1
2018-Jun-21 16:30N 42°25' W 070°22'3 5.7
2018-Jun-21 16:00N 42°28' W 070°23'918.0
2018-Jun-21 15:30N 42°36' W 070°29'611.7
2018-Jun-21 15:00N 42°32' W 070°35'611.6
2018-Jun-21 14:30N 42°37' W 070°39'0 0.0
2018-Jun-20 17:57N 42°37' W 070°39'511.4
2018-Jun-20 17:30N 42°32' W 070°37'714.0
2018-Jun-20 17:01N 42°27' W 070°30'1 1.4
2018-Jun-20 16:31N 42°27' W 070°29'1 1.4
2018-Jun-20 16:01N 42°27' W 070°28'1 2.0
2018-Jun-20 15:31N 42°28' W 070°29'816.7
2018-Jun-20 15:01N 42°34' W 070°37'4 7.1
2018-Jun-20 14:31N 42°37' W 070°39'0 0.0
2018-Jun-20 14:00N 42°37' W 070°39'0 0.0
2018-Jun-20 13:30N 42°37' W 070°39'0 0.0
2018-Jun-20 13:00N 42°37' W 070°39'0 0.0
2018-Jun-20 12:30N 42°37' W 070°39'0 0.0
2018-Jun-18 17:53N 42°37' W 070°39'1 2.7
2018-Jun-18 17:30N 42°36' W 070°40'816.8
2018-Jun-18 17:00N 42°30' W 070°32'816.5
2018-Jun-18 16:30N 42°24' W 070°25'2 4.0
2018-Jun-18 16:00N 42°25' W 070°27'3 5.7
2018-Jun-18 15:30N 42°28' W 070°29'612.4
2018-Jun-18 15:00N 42°31' W 070°35'612.1
2018-Jun-18 14:30N 42°37' W 070°39'0 0.1
2018-Jun-18 14:00N 42°37' W 070°39'0 0.0
2018-Jun-17 21:32N 42°37' W 070°39'0 0.0
2018-Jun-17 21:30N 42°37' W 070°39'2 4.2
2018-Jun-17 21:00N 42°35' W 070°40'816.4
2018-Jun-17 20:30N 42°30' W 070°31'611.8
2018-Jun-17 20:00N 42°26' W 070°25'2 3.1
2018-Jun-17 19:31N 42°25' W 070°25'3 5.8
2018-Jun-17 19:00N 42°27' W 070°27'816.4
2018-Jun-17 18:30N 42°32' W 070°36'510.6
2018-Jun-17 18:01N 42°37' W 070°39'0 0.0
2018-Jun-17 17:30N 42°37' W 070°39'0 0.0
2018-Jun-17 17:00N 42°37' W 070°39'0 0.0
2018-Jun-17 16:30N 42°37' W 070°39'2 3.2
2018-Jun-17 16:00N 42°35' W 070°40'715.0
2018-Jun-17 15:31N 42°30' W 070°33'815.7
2018-Jun-17 15:00N 42°25' W 070°25'1 1.8
2018-Jun-17 14:30N 42°25' W 070°26'1 1.2
2018-Jun-17 14:00N 42°26' W 070°26'816.3
2018-Jun-17 13:30N 42°31' W 070°34'713.3
2018-Jun-17 13:00N 42°37' W 070°39'0 0.1
2018-Jun-17 12:30N 42°37' W 070°39'0 0.0
2018-Jun-16 21:39N 42°37' W 070°39'0 3.3
2018-Jun-16 21:30N 42°36' W 070°40'510.7
2018-Jun-16 21:00N 42°38' W 070°33'5 9.9
2018-Jun-16 20:30N 42°40' W 070°27'1 1.4
2018-Jun-16 20:00N 42°39' W 070°26'3 6.7
2018-Jun-16 19:30N 42°41' W 070°22'4 7.7
2018-Jun-16 19:00N 42°38' W 070°25'815.7
2018-Jun-16 18:30N 42°35' W 070°35'3 6.7
2018-Jun-16 17:59N 42°37' W 070°39'0 0.0
2018-Jun-16 17:30N 42°37' W 070°39'0 0.0
2018-Jun-16 17:00N 42°37' W 070°39'0 0.0
2018-Jun-16 16:30N 42°37' W 070°39'3 5.7
2018-Jun-16 16:00N 42°36' W 070°36'917.0
2018-Jun-16 15:30N 42°41' W 070°27'3 5.2
2018-Jun-16 15:00N 42°42' W 070°24'2 4.1
2018-Jun-16 14:30N 42°41' W 070°25'2 4.4
2018-Jun-16 14:01N 42°40' W 070°28'510.1
2018-Jun-16 13:30N 42°37' W 070°33'4 8.6
2018-Jun-16 13:00N 42°37' W 070°39'0 0.0
2018-Jun-16 12:30N 42°37' W 070°39'0 0.0
2018-Jun-16 12:00N 42°37' W 070°39'0 0.0
2018-Jun-15 19:17N 42°37' W 070°39'0 0.0
2018-Jun-15 18:17N 42°37' W 070°39'2 8.2
2018-Jun-15 18:00N 42°34' W 070°39'816.1
2018-Jun-15 17:30N 42°37' W 070°29'4 8.1
2018-Jun-15 16:59N 42°40' W 070°24'0 0.9
2018-Jun-15 16:30N 42°40' W 070°24'2 3.8
2018-Jun-15 16:00N 42°41' W 070°24'510.1
2018-Jun-15 15:31N 42°42' W 070°31'714.8
2018-Jun-15 15:00N 42°36' W 070°35'3 6.3
2018-Jun-15 14:30N 42°37' W 070°39'0 0.0
2018-Jun-15 14:00N 42°37' W 070°39'0 0.0
2018-Jun-15 13:30N 42°37' W 070°39'  

Dump ship's entire track history